createdAt,value
2023-03-26T00:02:29.819Z,11.99
2023-03-26T00:05:03.088Z,12.00
2023-03-26T00:07:35.819Z,12.00
2023-03-26T00:10:10.717Z,11.99
2023-03-26T00:12:43.749Z,12.02
2023-03-26T00:15:16.755Z,12.01
2023-03-26T00:17:49.499Z,12.02
2023-03-26T00:20:22.399Z,12.00
2023-03-26T00:22:55.440Z,12.02
2023-03-26T00:25:29.479Z,12.01
2023-03-26T00:28:03.856Z,11.99
2023-03-26T00:30:36.904Z,12.00
2023-03-26T00:33:11.907Z,11.99
2023-03-26T00:35:47.071Z,11.98
2023-03-26T00:38:19.764Z,12.00
2023-03-26T00:40:54.092Z,11.99
2023-03-26T00:43:26.790Z,12.01
2023-03-26T00:45:59.645Z,12.01
2023-03-26T00:48:44.375Z,12.01
2023-03-26T00:51:18.592Z,12.03
2023-03-26T00:53:51.759Z,12.04
2023-03-26T00:56:26.006Z,12.03
2023-03-26T00:59:00.244Z,12.03
2023-03-26T01:01:33.156Z,12.04
2023-03-26T01:04:28.222Z,12.04
2023-03-26T01:07:04.175Z,12.02
2023-03-26T01:09:42.694Z,12.03
2023-03-26T01:12:18.717Z,12.03
2023-03-26T01:14:52.150Z,12.02
2023-03-26T01:17:25.115Z,12.02
2023-03-26T01:20:06.041Z,12.02
2023-03-26T01:22:39.905Z,12.02
2023-03-26T01:25:14.429Z,12.01
2023-03-26T01:27:50.032Z,12.04
2023-03-26T01:30:26.552Z,12.06
2023-03-26T01:33:03.500Z,12.06
2023-03-26T01:35:43.588Z,12.08
2023-03-26T01:38:24.591Z,12.09
2023-03-26T01:41:01.836Z,12.10
2023-03-26T01:43:37.595Z,12.08
2023-03-26T01:46:12.455Z,12.07
2023-03-26T01:48:46.459Z,12.04
2023-03-26T01:51:27.769Z,12.04
2023-03-26T01:54:00.876Z,12.00
2023-03-26T01:56:39.106Z,11.97
2023-03-26T01:59:18.888Z,11.96
2023-03-26T02:01:54.899Z,11.94
2023-03-26T02:04:32.588Z,11.93
2023-03-26T02:07:09.306Z,11.90
2023-03-26T02:09:46.098Z,11.89
2023-03-26T02:12:21.338Z,11.87
2023-03-26T02:14:54.148Z,11.85
2023-03-26T02:17:30.218Z,11.83
2023-03-26T02:20:10.819Z,11.83
2023-03-26T02:22:46.026Z,11.83
2023-03-26T02:25:20.063Z,11.81
2023-03-26T02:27:54.265Z,11.80
2023-03-26T02:30:27.125Z,11.80
2023-03-26T02:33:00.332Z,11.80
2023-03-26T02:35:33.248Z,11.80
2023-03-26T02:38:06.753Z,11.81
2023-03-26T02:40:39.544Z,11.80
2023-03-26T02:43:13.631Z,11.80
2023-03-26T02:45:46.969Z,11.80
2023-03-26T02:48:20.380Z,11.82
2023-03-26T02:50:54.549Z,11.80
2023-03-26T02:53:29.930Z,11.80
2023-03-26T02:56:02.674Z,11.81
2023-03-26T02:58:36.761Z,11.83
2023-03-26T03:01:09.554Z,11.82
2023-03-26T03:03:42.277Z,11.84
2023-03-26T03:06:17.225Z,11.83
2023-03-26T03:08:50.003Z,11.86
2023-03-26T03:11:24.996Z,11.85
2023-03-26T03:13:59.185Z,11.86
2023-03-26T03:16:32.048Z,11.87
2023-03-26T03:19:06.291Z,11.87
2023-03-26T03:21:39.346Z,11.85
2023-03-26T03:24:14.001Z,11.86
2023-03-26T03:26:47.927Z,11.88
2023-03-26T03:29:22.083Z,11.86
2023-03-26T03:31:55.602Z,11.87
2023-03-26T03:34:28.294Z,11.88
2023-03-26T03:37:01.076Z,11.87
2023-03-26T03:39:33.817Z,11.89
2023-03-26T03:42:06.743Z,11.87
2023-03-26T03:44:40.888Z,11.88
2023-03-26T03:47:15.639Z,11.85
2023-03-26T03:49:48.304Z,11.86
2023-03-26T03:52:21.054Z,11.85
2023-03-26T03:54:53.831Z,11.84
2023-03-26T03:57:26.987Z,11.81
2023-03-26T04:00:01.498Z,11.79
2023-03-26T04:02:35.956Z,11.80
2023-03-26T04:05:08.821Z,11.76
2023-03-26T04:07:41.613Z,11.75
2023-03-26T04:10:16.740Z,11.70
2023-03-26T04:12:49.556Z,11.71
2023-03-26T04:15:23.833Z,11.68
2023-03-26T04:17:56.917Z,11.66
2023-03-26T04:20:29.649Z,11.64
2023-03-26T04:23:03.377Z,11.62
2023-03-26T04:25:36.818Z,11.61
2023-03-26T04:28:12.238Z,11.60
2023-03-26T04:30:46.656Z,11.58
2023-03-26T04:33:21.164Z,11.56
2023-03-26T04:35:54.818Z,11.57
2023-03-26T04:38:28.137Z,11.53
2023-03-26T04:41:04.571Z,11.51
2023-03-26T04:43:42.394Z,11.51
2023-03-26T04:46:18.547Z,11.52
2023-03-26T04:48:52.007Z,11.49
2023-03-26T04:51:27.263Z,11.50
2023-03-26T04:54:02.627Z,11.49
2023-03-26T04:56:40.600Z,11.49
2023-03-26T04:59:15.087Z,11.46
2023-03-26T05:01:49.193Z,11.47
2023-03-26T05:04:21.985Z,11.46
2023-03-26T05:06:56.791Z,11.47
2023-03-26T05:09:29.714Z,11.47
2023-03-26T05:12:02.433Z,11.47
2023-03-26T05:14:36.239Z,11.48
2023-03-26T05:17:15.379Z,11.47
2023-03-26T05:19:48.778Z,11.47
2023-03-26T05:22:21.429Z,11.48
2023-03-26T05:24:54.457Z,11.49
2023-03-26T05:27:27.159Z,11.51
2023-03-26T05:30:01.851Z,11.51
2023-03-26T05:32:36.150Z,11.54
2023-03-26T05:35:09.917Z,11.55
2023-03-26T05:37:44.867Z,11.55
2023-03-26T05:40:18.155Z,11.58
2023-03-26T05:42:51.686Z,11.59
2023-03-26T05:45:24.507Z,11.61
2023-03-26T05:47:58.767Z,11.61
2023-03-26T05:50:31.548Z,11.61
2023-03-26T05:53:04.239Z,11.64
2023-03-26T05:55:37.064Z,11.64
2023-03-26T05:58:10.214Z,11.65
2023-03-26T06:00:43.358Z,11.64
2023-03-26T06:03:17.619Z,11.65
2023-03-26T06:05:50.580Z,11.65
2023-03-26T06:08:23.502Z,11.65
2023-03-26T06:11:00.154Z,11.62
2023-03-26T06:13:32.902Z,11.62
2023-03-26T06:16:05.969Z,11.61
2023-03-26T06:18:41.079Z,11.59
2023-03-26T06:21:14.402Z,11.60
2023-03-26T06:23:49.086Z,11.58
2023-03-26T06:26:23.680Z,11.57
2023-03-26T06:28:56.850Z,11.58
2023-03-26T06:31:29.719Z,11.57
2023-03-26T06:34:03.861Z,11.58
2023-03-26T06:36:37.017Z,11.59
2023-03-26T06:39:09.854Z,11.63
2023-03-26T06:41:42.649Z,11.64
2023-03-26T06:44:15.474Z,11.64
2023-03-26T06:46:48.401Z,11.65
2023-03-26T06:49:23.065Z,11.68
2023-03-26T06:51:56.008Z,11.70
2023-03-26T06:54:28.760Z,11.70
2023-03-26T06:57:01.787Z,11.75
2023-03-26T06:59:35.153Z,11.75
2023-03-26T07:02:07.952Z,11.75
2023-03-26T07:04:42.191Z,11.78
2023-03-26T07:07:14.942Z,11.79
2023-03-26T07:09:48.090Z,11.79
2023-03-26T07:12:21.400Z,11.80
2023-03-26T07:14:54.202Z,11.79
2023-03-26T07:17:27.278Z,11.77
2023-03-26T07:20:01.690Z,11.75
2023-03-26T07:22:35.120Z,11.72
2023-03-26T07:25:08.828Z,11.68
2023-03-26T07:27:48.426Z,11.67
2023-03-26T07:30:25.699Z,11.63
2023-03-26T07:33:02.088Z,11.60
2023-03-26T07:35:39.945Z,11.58
2023-03-26T07:38:25.848Z,11.56
2023-03-26T07:41:03.557Z,11.55
2023-03-26T07:43:43.700Z,11.53
2023-03-26T07:46:17.450Z,11.50
2023-03-26T07:48:52.293Z,11.50
2023-03-26T07:51:27.192Z,11.50
2023-03-26T07:54:01.502Z,11.47
2023-03-26T07:56:36.064Z,11.47
2023-03-26T07:59:14.773Z,11.46
2023-03-26T08:01:52.400Z,11.45
2023-03-26T08:04:40.009Z,11.46
2023-03-26T08:07:30.143Z,11.45
2023-03-26T08:10:07.914Z,11.43
2023-03-26T08:12:46.868Z,11.44
2023-03-26T08:15:22.591Z,11.44
2023-03-26T08:17:58.070Z,11.46
2023-03-26T08:20:36.989Z,11.46
2023-03-26T08:23:15.601Z,11.49
2023-03-26T08:25:53.436Z,11.54
2023-03-26T08:28:43.870Z,11.57
2023-03-26T08:31:20.232Z,11.63
2023-03-26T08:33:53.018Z,11.68
2023-03-26T08:36:25.933Z,11.75
2023-03-26T08:39:00.309Z,11.82
2023-03-26T08:42:00.762Z,11.89
2023-03-26T08:44:49.039Z,11.94
2023-03-26T08:47:43.459Z,11.98
2023-03-26T08:50:30.130Z,11.99
2023-03-26T08:53:18.558Z,12.01
2023-03-26T08:55:56.032Z,12.02
2023-03-26T08:58:53.076Z,12.04
2023-03-26T09:01:33.223Z,12.06
2023-03-26T09:04:22.729Z,12.10
2023-03-26T09:07:14.037Z,12.18
2023-03-26T09:09:55.897Z,12.27
2023-03-26T09:12:50.431Z,12.38
2023-03-26T09:15:41.488Z,12.52
2023-03-26T09:18:36.411Z,12.62
2023-03-26T09:21:22.664Z,12.69
2023-03-26T09:24:10.228Z,12.77
2023-03-26T09:27:00.519Z,12.79
2023-03-26T09:30:00.394Z,12.78
2023-03-26T09:32:51.712Z,12.74
2023-03-26T09:35:40.641Z,12.71
2023-03-26T09:38:32.349Z,12.70
2023-03-26T09:41:09.438Z,12.73
2023-03-26T09:44:00.961Z,12.80
2023-03-26T09:46:39.323Z,12.92
2023-03-26T09:49:23.062Z,13.03
2023-03-26T09:52:04.533Z,13.13
2023-03-26T09:54:56.250Z,13.24
2023-03-26T09:57:37.022Z,13.33
2023-03-26T10:00:17.046Z,13.42
2023-03-26T10:02:55.626Z,13.50
2023-03-26T10:05:34.379Z,13.57
2023-03-26T10:08:20.403Z,13.65
2023-03-26T10:10:56.786Z,13.73
2023-03-26T10:13:33.776Z,13.84
2023-03-26T10:16:17.001Z,13.94
2023-03-26T10:19:00.918Z,14.10
2023-03-26T10:21:41.566Z,14.28
2023-03-26T10:24:36.522Z,14.44
2023-03-26T10:27:28.337Z,14.63
2023-03-26T10:30:26.790Z,14.80
2023-03-26T10:33:03.775Z,14.94
2023-03-26T10:35:42.892Z,15.03
2023-03-26T10:38:19.414Z,15.14
2023-03-26T10:41:04.551Z,15.22
2023-03-26T10:44:07.433Z,15.29
2023-03-26T10:46:53.709Z,15.37
2023-03-26T10:49:35.215Z,15.46
2023-03-26T10:52:10.739Z,15.55
2023-03-26T10:54:47.962Z,15.63
2023-03-26T10:57:27.181Z,15.69
2023-03-26T11:00:02.750Z,15.75
2023-03-26T11:02:39.861Z,15.78
2023-03-26T11:05:28.896Z,15.81
2023-03-26T11:08:04.358Z,15.84
2023-03-26T11:10:43.759Z,15.88
2023-03-26T11:13:22.712Z,15.93
2023-03-26T11:15:57.963Z,15.98
2023-03-26T11:18:38.318Z,16.03
2023-03-26T11:21:19.040Z,16.14
2023-03-26T11:24:05.436Z,16.19
2023-03-26T11:26:44.401Z,16.28
2023-03-26T11:29:41.318Z,16.35
2023-03-26T11:32:15.631Z,16.43
2023-03-26T11:34:53.693Z,16.52
2023-03-26T11:37:30.686Z,16.62
2023-03-26T11:40:06.247Z,16.76
2023-03-26T11:42:39.101Z,16.90
2023-03-26T11:45:16.751Z,17.01
2023-03-26T11:47:51.751Z,17.16
2023-03-26T11:50:27.726Z,17.28
2023-03-26T11:53:03.635Z,17.43
2023-03-26T11:55:36.764Z,17.53
2023-03-26T11:58:18.954Z,17.65
2023-03-26T12:00:53.396Z,17.73
2023-03-26T12:03:26.174Z,17.82
2023-03-26T12:06:02.891Z,17.90
2023-03-26T12:08:39.183Z,17.96
2023-03-26T12:11:13.277Z,18.03
2023-03-26T12:13:47.107Z,18.08
2023-03-26T12:16:21.152Z,18.10
2023-03-26T12:19:01.857Z,18.14
2023-03-26T12:21:44.999Z,18.14
2023-03-26T12:24:27.043Z,18.18
2023-03-26T12:27:02.216Z,18.19
2023-03-26T12:29:35.301Z,18.24
2023-03-26T12:32:14.447Z,18.27
2023-03-26T12:34:47.604Z,18.29
2023-03-26T12:37:35.405Z,18.21
2023-03-26T12:40:16.079Z,17.99
2023-03-26T12:44:55.980Z,17.68
2023-03-26T12:45:46.894Z,17.29
2023-03-26T12:48:40.448Z,16.88
2023-03-26T12:51:18.334Z,16.53
2023-03-26T12:54:08.389Z,16.16
2023-03-26T12:56:47.829Z,15.83
2023-03-26T12:59:29.991Z,15.57
2023-03-26T13:02:10.346Z,15.38
2023-03-26T13:05:04.997Z,15.26
2023-03-26T13:07:48.650Z,15.20
2023-03-26T13:10:37.510Z,15.19
2023-03-26T13:13:21.136Z,15.20
2023-03-26T13:15:55.336Z,15.25
2023-03-26T13:18:33.977Z,15.28
2023-03-26T13:21:11.240Z,15.28
2023-03-26T13:23:49.065Z,15.29
2023-03-26T13:26:29.186Z,15.30
2023-03-26T13:29:09.283Z,15.33
2023-03-26T13:31:46.968Z,15.35
2023-03-26T13:34:27.771Z,15.42
2023-03-26T13:37:07.125Z,15.45
2023-03-26T13:39:46.616Z,15.52
2023-03-26T13:42:33.844Z,15.58
2023-03-26T13:45:12.753Z,15.62
2023-03-26T13:47:48.216Z,15.69
2023-03-26T13:50:25.191Z,15.74
2023-03-26T13:53:01.947Z,15.80
2023-03-26T13:55:37.522Z,15.87
2023-03-26T13:58:13.517Z,15.92
2023-03-26T14:00:54.645Z,15.96
2023-03-26T14:03:31.713Z,16.01
2023-03-26T14:06:10.177Z,16.03
2023-03-26T14:08:45.214Z,16.06
2023-03-26T14:11:20.719Z,16.08
2023-03-26T14:13:56.514Z,16.11
2023-03-26T14:16:35.490Z,16.10
2023-03-26T14:19:20.230Z,16.07
2023-03-26T14:21:58.790Z,16.00
2023-03-26T14:24:43.472Z,15.89
2023-03-26T14:27:40.316Z,15.78
2023-03-26T14:30:29.676Z,15.62
2023-03-26T14:33:12.730Z,15.49
2023-03-26T14:35:50.485Z,15.37
2023-03-26T14:38:41.078Z,15.26
2023-03-26T14:41:23.144Z,15.14
2023-03-26T14:44:17.029Z,15.01
2023-03-26T14:46:58.159Z,14.88
2023-03-26T14:49:39.816Z,14.74
2023-03-26T14:52:15.404Z,14.57
2023-03-26T14:54:51.191Z,14.32
2023-03-26T14:57:48.011Z,14.05
2023-03-26T15:00:32.207Z,13.72
2023-03-26T15:03:23.721Z,13.39
2023-03-26T15:06:12.804Z,13.08
2023-03-26T15:09:12.384Z,12.78
2023-03-26T15:11:49.193Z,12.49
2023-03-26T15:14:39.120Z,12.27
2023-03-26T15:17:30.537Z,12.05
2023-03-26T15:20:26.116Z,11.89
2023-03-26T15:23:24.501Z,11.77
2023-03-26T15:26:20.210Z,11.67
2023-03-26T15:29:06.054Z,11.62
2023-03-26T15:31:56.691Z,11.56
2023-03-26T15:34:49.008Z,11.57
2023-03-26T15:37:37.574Z,11.53
2023-03-26T15:40:28.877Z,11.51
2023-03-26T15:43:07.984Z,11.49
2023-03-26T15:45:41.893Z,11.48
2023-03-26T15:48:35.580Z,11.50
2023-03-26T15:51:29.208Z,11.51
2023-03-26T15:54:07.966Z,11.53
2023-03-26T15:56:53.175Z,11.56
2023-03-26T15:59:38.608Z,11.59
2023-03-26T16:02:21.596Z,11.61
2023-03-26T16:04:55.491Z,11.63
2023-03-26T16:07:39.525Z,11.65
2023-03-26T16:10:22.787Z,11.65
2023-03-26T16:12:57.295Z,11.66
2023-03-26T16:15:33.432Z,11.65
2023-03-26T16:18:22.717Z,11.62
2023-03-26T16:20:57.384Z,11.54
2023-03-26T16:23:31.321Z,11.40
2023-03-26T16:26:18.010Z,11.23
2023-03-26T16:29:14.496Z,11.03
2023-03-26T16:32:07.368Z,10.79
2023-03-26T16:34:44.121Z,10.61
2023-03-26T16:37:38.183Z,10.42
2023-03-26T16:40:36.750Z,10.23
2023-03-26T16:43:27.457Z,10.05
2023-03-26T16:46:03.883Z,9.88
2023-03-26T16:48:41.815Z,9.75
2023-03-26T16:51:18.778Z,9.64
2023-03-26T16:53:57.939Z,9.55
2023-03-26T16:56:34.732Z,9.44
2023-03-26T16:59:09.446Z,9.37
2023-03-26T17:01:47.102Z,9.32
2023-03-26T17:04:23.823Z,9.26
2023-03-26T17:07:05.712Z,9.23
2023-03-26T17:09:45.089Z,9.16
2023-03-26T17:12:21.880Z,9.13
2023-03-26T17:15:01.097Z,9.11
2023-03-26T17:17:54.944Z,9.08
2023-03-26T17:20:34.106Z,9.05
2023-03-26T17:23:16.224Z,9.02
2023-03-26T17:25:56.317Z,9.02
2023-03-26T17:28:35.440Z,8.99
2023-03-26T17:31:18.421Z,8.95
2023-03-26T17:33:51.664Z,8.90
2023-03-26T17:36:42.380Z,8.83
2023-03-26T17:39:39.856Z,8.78
2023-03-26T17:42:19.367Z,8.70
2023-03-26T17:44:54.551Z,8.62
2023-03-26T17:47:30.906Z,8.55
2023-03-26T17:50:06.430Z,8.48
2023-03-26T17:52:48.175Z,8.41
2023-03-26T17:55:22.683Z,8.32
2023-03-26T17:57:58.364Z,8.28
2023-03-26T18:00:34.040Z,8.23
2023-03-26T18:03:13.526Z,8.18
2023-03-26T18:05:47.796Z,8.17
2023-03-26T18:08:45.251Z,8.16
2023-03-26T18:11:26.822Z,8.19
2023-03-26T18:14:18.366Z,8.23
2023-03-26T18:16:53.552Z,8.25
2023-03-26T18:19:27.044Z,8.31
2023-03-26T18:22:00.900Z,8.38
2023-03-26T18:24:37.353Z,8.44
2023-03-26T18:27:12.601Z,8.50
2023-03-26T18:29:46.573Z,8.55
2023-03-26T18:32:22.851Z,8.62
2023-03-26T18:34:58.654Z,8.66
2023-03-26T18:37:33.544Z,8.70
2023-03-26T18:40:12.267Z,8.74
2023-03-26T18:42:46.793Z,8.79
2023-03-26T18:45:24.820Z,8.83
2023-03-26T18:48:00.461Z,8.88
2023-03-26T18:50:37.169Z,8.91
2023-03-26T18:53:15.827Z,8.94
2023-03-26T18:55:50.793Z,8.97
2023-03-26T18:58:25.177Z,9.01
2023-03-26T19:01:00.084Z,9.05
2023-03-26T19:03:36.576Z,9.05
2023-03-26T19:06:12.736Z,9.05
2023-03-26T19:08:46.764Z,9.06
2023-03-26T19:11:19.787Z,9.04
2023-03-26T19:14:03.266Z,9.00
2023-03-26T19:16:37.655Z,8.96
2023-03-26T19:19:17.149Z,8.93
2023-03-26T19:21:51.142Z,8.89
2023-03-26T19:24:24.318Z,8.87
2023-03-26T19:26:57.563Z,8.85
2023-03-26T19:29:35.250Z,8.86
2023-03-26T19:32:17.023Z,8.87
2023-03-26T19:34:53.421Z,8.86
2023-03-26T19:37:29.921Z,8.90
2023-03-26T19:40:07.861Z,8.91
2023-03-26T19:42:42.978Z,8.94
2023-03-26T19:45:18.911Z,8.98
2023-03-26T19:48:00.423Z,9.00
2023-03-26T19:50:54.655Z,9.03
2023-03-26T19:53:44.464Z,9.07
2023-03-26T19:56:18.750Z,9.10
2023-03-26T19:58:51.554Z,9.12
2023-03-26T20:01:25.572Z,9.14
2023-03-26T20:04:00.929Z,9.17
2023-03-26T20:06:43.154Z,9.18
2023-03-26T20:09:17.390Z,9.18
2023-03-26T20:11:52.573Z,9.18
2023-03-26T20:14:26.703Z,9.17
2023-03-26T20:16:59.530Z,9.16
2023-03-26T20:19:32.295Z,9.11
2023-03-26T20:22:07.993Z,9.09
2023-03-26T20:24:41.557Z,9.07
2023-03-26T20:27:14.967Z,9.03
2023-03-26T20:29:47.866Z,9.02
2023-03-26T20:32:23.669Z,9.02
2023-03-26T20:34:58.031Z,9.00
2023-03-26T20:37:32.205Z,9.00
2023-03-26T20:40:07.020Z,9.03
2023-03-26T20:42:40.001Z,9.05
2023-03-26T20:45:18.060Z,9.07
2023-03-26T20:47:51.733Z,9.11
2023-03-26T20:50:26.275Z,9.14
2023-03-26T20:53:03.044Z,9.17
2023-03-26T20:55:36.935Z,9.21
2023-03-26T20:58:10.878Z,9.25
2023-03-26T21:00:44.711Z,9.29
2023-03-26T21:03:19.412Z,9.31
2023-03-26T21:05:52.675Z,9.33
2023-03-26T21:08:30.255Z,9.36
2023-03-26T21:11:03.894Z,9.36
2023-03-26T21:13:38.127Z,9.36
2023-03-26T21:16:12.205Z,9.35
2023-03-26T21:18:45.543Z,9.35
2023-03-26T21:21:26.385Z,9.34
2023-03-26T21:24:05.141Z,9.33
2023-03-26T21:26:43.858Z,9.33
2023-03-26T21:29:17.223Z,9.32
2023-03-26T21:31:52.770Z,9.33
2023-03-26T21:34:27.817Z,9.32
2023-03-26T21:37:01.024Z,9.32
2023-03-26T21:39:35.567Z,9.32
2023-03-26T21:42:08.807Z,9.33
2023-03-26T21:44:42.184Z,9.33
2023-03-26T21:47:15.449Z,9.34
2023-03-26T21:49:48.260Z,9.33
2023-03-26T21:52:22.829Z,9.36
2023-03-26T21:55:00.653Z,9.36
2023-03-26T21:57:40.621Z,9.38
2023-03-26T22:00:15.626Z,9.39
2023-03-26T22:02:56.321Z,9.40
2023-03-26T22:05:33.667Z,9.42
2023-03-26T22:08:07.097Z,9.42
2023-03-26T22:10:41.371Z,9.45
2023-03-26T22:13:14.228Z,9.48
2023-03-26T22:15:47.047Z,9.50
2023-03-26T22:18:21.799Z,9.50
2023-03-26T22:20:54.739Z,9.53
2023-03-26T22:23:28.204Z,9.52
2023-03-26T22:26:02.314Z,9.52
2023-03-26T22:28:35.490Z,9.53
2023-03-26T22:31:09.515Z,9.51
2023-03-26T22:33:43.340Z,9.51
2023-03-26T22:36:22.598Z,9.51
2023-03-26T22:38:56.939Z,9.50
2023-03-26T22:41:31.952Z,9.48
2023-03-26T22:44:16.973Z,9.47
2023-03-26T22:46:54.443Z,9.48
2023-03-26T22:49:30.371Z,9.52
2023-03-26T22:52:03.306Z,9.54
2023-03-26T22:54:36.826Z,9.54
2023-03-26T22:57:11.240Z,9.55
2023-03-26T22:59:44.258Z,9.59
2023-03-26T23:02:17.553Z,9.61
2023-03-26T23:04:50.733Z,9.62
2023-03-26T23:07:23.473Z,9.63
2023-03-26T23:09:56.170Z,9.63
2023-03-26T23:12:30.341Z,9.66
2023-03-26T23:15:05.228Z,9.67
2023-03-26T23:20:46.191Z,9.70
2023-03-26T23:23:18.931Z,9.69
2023-03-26T23:25:53.123Z,9.70
2023-03-26T23:28:31.032Z,9.72
2023-03-26T23:31:05.238Z,9.73
2023-03-26T23:33:38.650Z,9.73
2023-03-26T23:36:11.539Z,9.73
2023-03-26T23:38:46.660Z,9.74
2023-03-26T23:41:21.670Z,9.73
2023-03-26T23:43:56.269Z,9.71
2023-03-26T23:46:30.663Z,9.67
2023-03-26T23:49:04.071Z,9.65
2023-03-26T23:51:37.305Z,9.60
2023-03-26T23:54:11.678Z,9.58
2023-03-26T23:56:44.402Z,9.54
2023-03-26T23:59:19.079Z,9.53
